KIDA/IDA METAR and TAF weather

Enter ICAO airport designator
Station Type Date Time Source
KIDA METAR 2022/11/27 08:53 UTC NOAA

KIDA 270853Z AUTO 20010KT 10SM OVC009 M01/M03 A3014 RMK AO2 SLP233 T10111033 58006


Station Type Date Time Source
KIDA Decoded METAR 2022/11/27 08:53 UTC NOAA

IDAHO FALLS REGIONAL AIRPORT, ID, United States (KIDA) 43-31N 112-04W 1453M
Nov 27, 2022 - 03:53 AM EST / 2022.11.27 0853 UTC
Wind: from the SSW (200 degrees) at 12 MPH (10 KT):0
Visibility: 10 mile(s):0
Sky conditions: overcast
Temperature: 30.0 F (-1.1 C)
Windchill: 19 F (-7 C):1
Dew Point: 26.1 F (-3.3 C)
Relative Humidity: 84%
Pressure (altimeter): 30.14 in. Hg (1020 hPa)
Pressure tendency: 0.02 inches (0.6 hPa) lower than three hours ago
ob: KIDA 270853Z AUTO 20010KT 10SM OVC009 M01/M03 A3014 RMK AO2 SLP233 T10111033 58006
cycle: 9

Station Type Date Time Source
KIDA TAF 2022/11/27 08:27 UTC NOAA

TAF
AMD KIDA 270825Z 2708/2806 21008KT P6SM VCSH OVC008
FM271500 22015KT P6SM VCSH SCT005 OVC012
FM272100 20018G28KT P6SM SCT015 BKN035
FM280200 21018G28KT P6SM VCSH SCT005 OVC020

Example: see airport list